sensor_id;sensor_type;location;lat;lon;timestamp;pressure;altitude;pressure_sealevel;temperature
71205;BMP180;58935;54.498;18.544;2022-12-18T00:03:41;101893.60;;;-2.30
71205;BMP180;58935;54.498;18.544;2022-12-18T00:06:06;101896.80;;;-2.30
71205;BMP180;58935;54.498;18.544;2022-12-18T00:08:31;101900.40;;;-2.36
71205;BMP180;58935;54.498;18.544;2022-12-18T00:11:05;101904.40;;;-2.38
71205;BMP180;58935;54.498;18.544;2022-12-18T00:13:30;101908.00;;;-2.40
71205;BMP180;58935;54.498;18.544;2022-12-18T00:16:02;101904.00;;;-2.38
71205;BMP180;58935;54.498;18.544;2022-12-18T00:18:28;101900.80;;;-2.40
71205;BMP180;58935;54.498;18.544;2022-12-18T00:20:59;101899.80;;;-2.40
71205;BMP180;58935;54.498;18.544;2022-12-18T00:23:29;101897.00;;;-2.40
71205;BMP180;58935;54.498;18.544;2022-12-18T00:25:54;101896.00;;;-2.50
71205;BMP180;58935;54.498;18.544;2022-12-18T00:28:20;101899.40;;;-2.50
71205;BMP180;58935;54.498;18.544;2022-12-18T00:30:45;101905.60;;;-2.52
71205;BMP180;58935;54.498;18.544;2022-12-18T00:33:10;101907.80;;;-2.60
71205;BMP180;58935;54.498;18.544;2022-12-18T00:35:38;101909.00;;;-2.60
71205;BMP180;58935;54.498;18.544;2022-12-18T00:38:03;101906.00;;;-2.70
71205;BMP180;58935;54.498;18.544;2022-12-18T00:40:30;101904.60;;;-2.70
71205;BMP180;58935;54.498;18.544;2022-12-18T00:42:55;101908.20;;;-2.80
71205;BMP180;58935;54.498;18.544;2022-12-18T00:45:22;101908.80;;;-2.80
71205;BMP180;58935;54.498;18.544;2022-12-18T00:47:48;101916.80;;;-2.88
71205;BMP180;58935;54.498;18.544;2022-12-18T00:50:13;101914.80;;;-2.90
71205;BMP180;58935;54.498;18.544;2022-12-18T00:52:38;101921.80;;;-2.90
71205;BMP180;58935;54.498;18.544;2022-12-18T00:55:04;101917.60;;;-3.00
71205;BMP180;58935;54.498;18.544;2022-12-18T00:57:29;101913.40;;;-3.00
71205;BMP180;58935;54.498;18.544;2022-12-18T00:59:55;101913.20;;;-3.02
71205;BMP180;58935;54.498;18.544;2022-12-18T01:02:20;101919.00;;;-3.10
71205;BMP180;58935;54.498;18.544;2022-12-18T01:04:45;101918.00;;;-3.08
71205;BMP180;58935;54.498;18.544;2022-12-18T01:07:10;101921.80;;;-3.08
71205;BMP180;58935;54.498;18.544;2022-12-18T01:09:38;101921.40;;;-3.08
71205;BMP180;58935;54.498;18.544;2022-12-18T01:12:03;101923.80;;;-3.10
71205;BMP180;58935;54.498;18.544;2022-12-18T01:14:29;101926.80;;;-3.10
71205;BMP180;58935;54.498;18.544;2022-12-18T01:16:54;101929.20;;;-3.10
71205;BMP180;58935;54.498;18.544;2022-12-18T01:19:22;101931.60;;;-3.10
71205;BMP180;58935;54.498;18.544;2022-12-18T01:21:49;101933.80;;;-3.10
71205;BMP180;58935;54.498;18.544;2022-12-18T01:24:15;101939.00;;;-3.10
71205;BMP180;58935;54.498;18.544;2022-12-18T01:26:40;101940.80;;;-3.10
71205;BMP180;58935;54.498;18.544;2022-12-18T01:29:06;101940.60;;;-3.10
71205;BMP180;58935;54.498;18.544;2022-12-18T01:31:34;101943.40;;;-3.10
71205;BMP180;58935;54.498;18.544;2022-12-18T01:34:01;101943.00;;;-3.00
71205;BMP180;58935;54.498;18.544;2022-12-18T01:36:29;101945.80;;;-3.00
71205;BMP180;58935;54.498;18.544;2022-12-18T01:38:55;101951.40;;;-2.90
71205;BMP180;58935;54.498;18.544;2022-12-18T01:41:26;101945.20;;;-2.80
71205;BMP180;58935;54.498;18.544;2022-12-18T01:46:43;101944.20;;;-2.70
71205;BMP180;58935;54.498;18.544;2022-12-18T01:49:11;101950.20;;;-2.70
71205;BMP180;58935;54.498;18.544;2022-12-18T01:51:36;101947.80;;;-2.70
71205;BMP180;58935;54.498;18.544;2022-12-18T01:54:02;101947.40;;;-2.60
71205;BMP180;58935;54.498;18.544;2022-12-18T01:56:29;101948.80;;;-2.60
71205;BMP180;58935;54.498;18.544;2022-12-18T01:59:00;101940.40;;;-2.60
71205;BMP180;58935;54.498;18.544;2022-12-18T02:01:26;101943.40;;;-2.56
71205;BMP180;58935;54.498;18.544;2022-12-18T02:03:56;101949.40;;;-2.58
71205;BMP180;58935;54.498;18.544;2022-12-18T02:06:28;101948.20;;;-2.60
71205;BMP180;58935;54.498;18.544;2022-12-18T02:09:06;101942.20;;;-2.54
71205;BMP180;58935;54.498;18.544;2022-12-18T02:11:44;101939.60;;;-2.50
71205;BMP180;58935;54.498;18.544;2022-12-18T02:14:26;101945.40;;;-2.50
71205;BMP180;58935;54.498;18.544;2022-12-18T02:17:02;101949.40;;;-2.50
71205;BMP180;58935;54.498;18.544;2022-12-18T02:25:15;101953.40;;;-2.40
71205;BMP180;58935;54.498;18.544;2022-12-18T02:27:46;101966.80;;;-2.30
71205;BMP180;58935;54.498;18.544;2022-12-18T02:30:13;101962.40;;;-2.30
71205;BMP180;58935;54.498;18.544;2022-12-18T02:32:47;101962.20;;;-2.30
71205;BMP180;58935;54.498;18.544;2022-12-18T02:35:17;101959.40;;;-2.20
71205;BMP180;58935;54.498;18.544;2022-12-18T02:37:46;101966.60;;;-2.20
71205;BMP180;58935;54.498;18.544;2022-12-18T02:40:14;101974.00;;;-2.18
71205;BMP180;58935;54.498;18.544;2022-12-18T02:42:40;101970.40;;;-2.10
71205;BMP180;58935;54.498;18.544;2022-12-18T02:45:05;101980.40;;;-2.10
71205;BMP180;58935;54.498;18.544;2022-12-18T02:47:34;101974.40;;;-2.02
71205;BMP180;58935;54.498;18.544;2022-12-18T02:50:28;101977.20;;;-2.00
71205;BMP180;58935;54.498;18.544;2022-12-18T02:53:06;101977.00;;;-2.00
71205;BMP180;58935;54.498;18.544;2022-12-18T02:58:24;101979.80;;;-2.00
71205;BMP180;58935;54.498;18.544;2022-12-18T03:00:59;101978.80;;;-2.00
71205;BMP180;58935;54.498;18.544;2022-12-18T03:03:29;101987.20;;;-2.00
71205;BMP180;58935;54.498;18.544;2022-12-18T03:06:03;101987.00;;;-2.00
71205;BMP180;58935;54.498;18.544;2022-12-18T03:08:32;101986.00;;;-2.10
71205;BMP180;58935;54.498;18.544;2022-12-18T03:11:03;101991.40;;;-2.10
71205;BMP180;58935;54.498;18.544;2022-12-18T03:13:35;101989.00;;;-2.10
71205;BMP180;58935;54.498;18.544;2022-12-18T03:16:03;101990.80;;;-2.10
71205;BMP180;58935;54.498;18.544;2022-12-18T03:18:36;101992.80;;;-2.10
71205;BMP180;58935;54.498;18.544;2022-12-18T03:21:05;101995.20;;;-2.10
71205;BMP180;58935;54.498;18.544;2022-12-18T03:23:35;101997.40;;;-2.10
71205;BMP180;58935;54.498;18.544;2022-12-18T03:26:10;101992.20;;;-2.00
71205;BMP180;58935;54.498;18.544;2022-12-18T03:28:39;101997.80;;;-2.00
71205;BMP180;58935;54.498;18.544;2022-12-18T03:31:09;102005.40;;;-2.00
71205;BMP180;58935;54.498;18.544;2022-12-18T03:33:40;102005.40;;;-2.00
71205;BMP180;58935;54.498;18.544;2022-12-18T03:36:06;102010.00;;;-2.00
71205;BMP180;58935;54.498;18.544;2022-12-18T03:38:32;102011.40;;;-2.00
71205;BMP180;58935;54.498;18.544;2022-12-18T03:41:04;102010.00;;;-2.00
71205;BMP180;58935;54.498;18.544;2022-12-18T03:43:41;102011.20;;;-2.00
71205;BMP180;58935;54.498;18.544;2022-12-18T03:46:17;102014.20;;;-2.00
71205;BMP180;58935;54.498;18.544;2022-12-18T03:48:51;102016.80;;;-2.00
71205;BMP180;58935;54.498;18.544;2022-12-18T03:51:24;102018.00;;;-2.00
71205;BMP180;58935;54.498;18.544;2022-12-18T03:53:57;102019.20;;;-2.00
71205;BMP180;58935;54.498;18.544;2022-12-18T03:56:25;102018.40;;;-2.00
71205;BMP180;58935;54.498;18.544;2022-12-18T03:58:53;102024.60;;;-2.00
71205;BMP180;58935;54.498;18.544;2022-12-18T04:01:22;102029.20;;;-1.94
71205;BMP180;58935;54.498;18.544;2022-12-18T04:03:49;102020.80;;;-1.98
71205;BMP180;58935;54.498;18.544;2022-12-18T04:06:16;102018.60;;;-2.00
71205;BMP180;58935;54.498;18.544;2022-12-18T04:08:42;102026.60;;;-1.98
71205;BMP180;58935;54.498;18.544;2022-12-18T04:11:08;102022.20;;;-1.90
71205;BMP180;58935;54.498;18.544;2022-12-18T04:13:36;102026.80;;;-2.00
71205;BMP180;58935;54.498;18.544;2022-12-18T04:16:02;102030.40;;;-2.00
71205;BMP180;58935;54.498;18.544;2022-12-18T04:18:28;102035.60;;;-2.00
71205;BMP180;58935;54.498;18.544;2022-12-18T04:20:53;102037.80;;;-1.94
71205;BMP180;58935;54.498;18.544;2022-12-18T04:23:18;102038.80;;;-2.00
71205;BMP180;58935;54.498;18.544;2022-12-18T04:25:47;102038.00;;;-2.00
71205;BMP180;58935;54.498;18.544;2022-12-18T04:28:12;102037.20;;;-2.00
71205;BMP180;58935;54.498;18.544;2022-12-18T04:30:37;102035.20;;;-2.00
71205;BMP180;58935;54.498;18.544;2022-12-18T04:33:08;102040.40;;;-2.00
71205;BMP180;58935;54.498;18.544;2022-12-18T04:35:33;102033.60;;;-2.00
71205;BMP180;58935;54.498;18.544;2022-12-18T04:37:58;102047.60;;;-2.00
71205;BMP180;58935;54.498;18.544;2022-12-18T04:40:24;102055.80;;;-2.00
71205;BMP180;58935;54.498;18.544;2022-12-18T04:42:49;102064.40;;;-2.00
71205;BMP180;58935;54.498;18.544;2022-12-18T04:45:14;102059.80;;;-2.00
71205;BMP180;58935;54.498;18.544;2022-12-18T04:47:40;102067.40;;;-1.98
71205;BMP180;58935;54.498;18.544;2022-12-18T04:50:05;102063.20;;;-1.94
71205;BMP180;58935;54.498;18.544;2022-12-18T04:52:33;102070.40;;;-2.00
71205;BMP180;58935;54.498;18.544;2022-12-18T04:54:58;102069.20;;;-1.98
71205;BMP180;58935;54.498;18.544;2022-12-18T04:57:23;102071.80;;;-1.96
71205;BMP180;58935;54.498;18.544;2022-12-18T04:59:49;102065.00;;;-2.00
71205;BMP180;58935;54.498;18.544;2022-12-18T05:02:14;102067.20;;;-2.00
71205;BMP180;58935;54.498;18.544;2022-12-18T05:04:42;102069.20;;;-2.00
71205;BMP180;58935;54.498;18.544;2022-12-18T05:07:09;102074.60;;;-2.02
71205;BMP180;58935;54.498;18.544;2022-12-18T05:09:34;102076.20;;;-2.00
71205;BMP180;58935;54.498;18.544;2022-12-18T05:12:00;102079.00;;;-2.00
71205;BMP180;58935;54.498;18.544;2022-12-18T05:14:25;102095.40;;;-2.00
71205;BMP180;58935;54.498;18.544;2022-12-18T05:16:54;102093.60;;;-2.00
71205;BMP180;58935;54.498;18.544;2022-12-18T05:19:19;102093.40;;;-2.08
71205;BMP180;58935;54.498;18.544;2022-12-18T05:21:46;102098.20;;;-2.10
71205;BMP180;58935;54.498;18.544;2022-12-18T05:24:12;102108.60;;;-2.10
71205;BMP180;58935;54.498;18.544;2022-12-18T05:26:37;102112.20;;;-2.10
71205;BMP180;58935;54.498;18.544;2022-12-18T05:29:05;102109.60;;;-2.02
71205;BMP180;58935;54.498;18.544;2022-12-18T05:31:30;102111.00;;;-2.02
71205;BMP180;58935;54.498;18.544;2022-12-18T05:33:55;102110.80;;;-2.04
71205;BMP180;58935;54.498;18.544;2022-12-18T05:36:21;102109.60;;;-2.00
71205;BMP180;58935;54.498;18.544;2022-12-18T05:38:46;102115.40;;;-2.10
71205;BMP180;58935;54.498;18.544;2022-12-18T05:41:11;102119.00;;;-2.10
71205;BMP180;58935;54.498;18.544;2022-12-18T05:43:38;102126.40;;;-2.10
71205;BMP180;58935;54.498;18.544;2022-12-18T05:46:08;102117.00;;;-2.10
71205;BMP180;58935;54.498;18.544;2022-12-18T05:48:36;102126.40;;;-2.10
71205;BMP180;58935;54.498;18.544;2022-12-18T05:51:04;102134.20;;;-2.10
71205;BMP180;58935;54.498;18.544;2022-12-18T05:53:31;102132.60;;;-2.18
71205;BMP180;58935;54.498;18.544;2022-12-18T05:56:00;102135.20;;;-2.20
71205;BMP180;58935;54.498;18.544;2022-12-18T05:58:26;102126.20;;;-2.20
71205;BMP180;58935;54.498;18.544;2022-12-18T06:00:51;102127.80;;;-2.20
71205;BMP180;58935;54.498;18.544;2022-12-18T06:03:16;102130.40;;;-2.20
71205;BMP180;58935;54.498;18.544;2022-12-18T06:05:45;102127.80;;;-2.20
71205;BMP180;58935;54.498;18.544;2022-12-18T06:08:11;102133.60;;;-2.20
71205;BMP180;58935;54.498;18.544;2022-12-18T06:10:40;102139.80;;;-2.20
71205;BMP180;58935;54.498;18.544;2022-12-18T06:13:06;102127.00;;;-2.20
71205;BMP180;58935;54.498;18.544;2022-12-18T06:15:32;102136.20;;;-2.20
71205;BMP180;58935;54.498;18.544;2022-12-18T06:17:57;102139.40;;;-2.22
71205;BMP180;58935;54.498;18.544;2022-12-18T06:20:23;102142.20;;;-2.28
71205;BMP180;58935;54.498;18.544;2022-12-18T06:22:48;102144.20;;;-2.20
71205;BMP180;58935;54.498;18.544;2022-12-18T06:25:14;102150.00;;;-2.20
71205;BMP180;58935;54.498;18.544;2022-12-18T06:27:39;102149.40;;;-2.22
71205;BMP180;58935;54.498;18.544;2022-12-18T06:30:06;102151.60;;;-2.30
71205;BMP180;58935;54.498;18.544;2022-12-18T06:32:31;102156.20;;;-2.30
71205;BMP180;58935;54.498;18.544;2022-12-18T06:34:57;102166.80;;;-2.36
71205;BMP180;58935;54.498;18.544;2022-12-18T06:37:23;102167.00;;;-2.40
71205;BMP180;58935;54.498;18.544;2022-12-18T06:39:52;102174.00;;;-2.40
71205;BMP180;58935;54.498;18.544;2022-12-18T06:42:17;102170.40;;;-2.40
71205;BMP180;58935;54.498;18.544;2022-12-18T06:44:42;102183.20;;;-2.42
71205;BMP180;58935;54.498;18.544;2022-12-18T06:47:08;102185.20;;;-2.48
71205;BMP180;58935;54.498;18.544;2022-12-18T06:49:33;102180.60;;;-2.50
71205;BMP180;58935;54.498;18.544;2022-12-18T06:51:58;102182.80;;;-2.48
71205;BMP180;58935;54.498;18.544;2022-12-18T06:54:23;102190.80;;;-2.50
71205;BMP180;58935;54.498;18.544;2022-12-18T06:56:49;102193.00;;;-2.50
71205;BMP180;58935;54.498;18.544;2022-12-18T06:59:15;102191.20;;;-2.50
71205;BMP180;58935;54.498;18.544;2022-12-18T07:01:40;102195.00;;;-2.50
71205;BMP180;58935;54.498;18.544;2022-12-18T07:04:06;102199.00;;;-2.56
71205;BMP180;58935;54.498;18.544;2022-12-18T07:06:31;102206.00;;;-2.60
71205;BMP180;58935;54.498;18.544;2022-12-18T07:08:58;102213.00;;;-2.60
71205;BMP180;58935;54.498;18.544;2022-12-18T07:11:26;102213.20;;;-2.60
71205;BMP180;58935;54.498;18.544;2022-12-18T07:13:54;102212.60;;;-2.60
71205;BMP180;58935;54.498;18.544;2022-12-18T07:16:20;102219.80;;;-2.60
71205;BMP180;58935;54.498;18.544;2022-12-18T07:18:46;102231.60;;;-2.60
71205;BMP180;58935;54.498;18.544;2022-12-18T07:21:14;102230.40;;;-2.60
71205;BMP180;58935;54.498;18.544;2022-12-18T07:23:40;102220.40;;;-2.60
71205;BMP180;58935;54.498;18.544;2022-12-18T07:26:08;102217.20;;;-2.60
71205;BMP180;58935;54.498;18.544;2022-12-18T07:28:36;102222.20;;;-2.60
71205;BMP180;58935;54.498;18.544;2022-12-18T07:31:04;102223.60;;;-2.60
71205;BMP180;58935;54.498;18.544;2022-12-18T07:33:31;102233.20;;;-2.60
71205;BMP180;58935;54.498;18.544;2022-12-18T07:36:00;102228.20;;;-2.60
71205;BMP180;58935;54.498;18.544;2022-12-18T07:38:28;102236.80;;;-2.60
71205;BMP180;58935;54.498;18.544;2022-12-18T07:40:54;102232.60;;;-2.60
71205;BMP180;58935;54.498;18.544;2022-12-18T07:43:19;102243.20;;;-2.60
71205;BMP180;58935;54.498;18.544;2022-12-18T07:45:44;102252.80;;;-2.60
71205;BMP180;58935;54.498;18.544;2022-12-18T07:48:10;102265.00;;;-2.60
71205;BMP180;58935;54.498;18.544;2022-12-18T07:50:36;102252.00;;;-2.60
71205;BMP180;58935;54.498;18.544;2022-12-18T07:53:04;102263.20;;;-2.60
71205;BMP180;58935;54.498;18.544;2022-12-18T07:55:36;102255.40;;;-2.60
71205;BMP180;58935;54.498;18.544;2022-12-18T07:58:03;102239.20;;;-2.56
71205;BMP180;58935;54.498;18.544;2022-12-18T08:00:29;102252.60;;;-2.52
71205;BMP180;58935;54.498;18.544;2022-12-18T08:02:55;102255.60;;;-2.52
71205;BMP180;58935;54.498;18.544;2022-12-18T08:05:20;102252.00;;;-2.50
71205;BMP180;58935;54.498;18.544;2022-12-18T08:07:46;102256.00;;;-2.50
71205;BMP180;58935;54.498;18.544;2022-12-18T08:10:12;102264.40;;;-2.50
71205;BMP180;58935;54.498;18.544;2022-12-18T08:12:37;102263.60;;;-2.50
71205;BMP180;58935;54.498;18.544;2022-12-18T08:15:03;102267.40;;;-2.44
71205;BMP180;58935;54.498;18.544;2022-12-18T08:17:31;102268.40;;;-2.40
71205;BMP180;58935;54.498;18.544;2022-12-18T08:19:57;102269.80;;;-2.40
71205;BMP180;58935;54.498;18.544;2022-12-18T08:22:22;102262.40;;;-2.40
71205;BMP180;58935;54.498;18.544;2022-12-18T08:24:47;102272.40;;;-2.30
71205;BMP180;58935;54.498;18.544;2022-12-18T08:27:12;102271.20;;;-2.30
71205;BMP180;58935;54.498;18.544;2022-12-18T08:29:38;102274.60;;;-2.30
71205;BMP180;58935;54.498;18.544;2022-12-18T08:32:03;102278.80;;;-2.30
71205;BMP180;58935;54.498;18.544;2022-12-18T08:34:29;102270.00;;;-2.30
71205;BMP180;58935;54.498;18.544;2022-12-18T08:36:54;102263.60;;;-2.20
71205;BMP180;58935;54.498;18.544;2022-12-18T08:39:19;102270.80;;;-2.20
71205;BMP180;58935;54.498;18.544;2022-12-18T08:41:44;102280.80;;;-2.20
71205;BMP180;58935;54.498;18.544;2022-12-18T08:44:29;102285.40;;;-2.10
71205;BMP180;58935;54.498;18.544;2022-12-18T08:46:58;102287.40;;;-2.10
71205;BMP180;58935;54.498;18.544;2022-12-18T08:49:23;102285.60;;;-2.10
71205;BMP180;58935;54.498;18.544;2022-12-18T08:51:54;102294.40;;;-2.10
71205;BMP180;58935;54.498;18.544;2022-12-18T08:54:19;102295.20;;;-2.10
71205;BMP180;58935;54.498;18.544;2022-12-18T08:56:45;102292.80;;;-2.10
71205;BMP180;58935;54.498;18.544;2022-12-18T08:59:13;102290.40;;;-2.10
71205;BMP180;58935;54.498;18.544;2022-12-18T09:01:38;102285.20;;;-2.02
71205;BMP180;58935;54.498;18.544;2022-12-18T09:04:03;102292.40;;;-2.00
71205;BMP180;58935;54.498;18.544;2022-12-18T09:06:29;102299.80;;;-2.00
71205;BMP180;58935;54.498;18.544;2022-12-18T09:08:54;102304.00;;;-2.00
71205;BMP180;58935;54.498;18.544;2022-12-18T09:11:23;102306.40;;;-2.00
71205;BMP180;58935;54.498;18.544;2022-12-18T09:13:49;102297.20;;;-1.96
71205;BMP180;58935;54.498;18.544;2022-12-18T09:16:15;102301.60;;;-1.90
71205;BMP180;58935;54.498;18.544;2022-12-18T09:18:41;102299.00;;;-1.90
71205;BMP180;58935;54.498;18.544;2022-12-18T09:21:12;102303.80;;;-1.90
71205;BMP180;58935;54.498;18.544;2022-12-18T09:23:38;102307.40;;;-1.90
71205;BMP180;58935;54.498;18.544;2022-12-18T09:26:03;102304.80;;;-1.86
71205;BMP180;58935;54.498;18.544;2022-12-18T09:28:29;102304.00;;;-1.80
71205;BMP180;58935;54.498;18.544;2022-12-18T09:31:03;102309.60;;;-1.80
71205;BMP180;58935;54.498;18.544;2022-12-18T09:33:28;102313.60;;;-1.82
71205;BMP180;58935;54.498;18.544;2022-12-18T09:35:56;102310.00;;;-1.80
71205;BMP180;58935;54.498;18.544;2022-12-18T09:38:21;102305.40;;;-1.80
71205;BMP180;58935;54.498;18.544;2022-12-18T09:40:51;102308.20;;;-1.80
71205;BMP180;58935;54.498;18.544;2022-12-18T09:43:20;102310.60;;;-1.80
71205;BMP180;58935;54.498;18.544;2022-12-18T09:45:51;102312.80;;;-1.76
71205;BMP180;58935;54.498;18.544;2022-12-18T09:48:23;102310.00;;;-1.70
71205;BMP180;58935;54.498;18.544;2022-12-18T09:50:50;102312.60;;;-1.70
71205;BMP180;58935;54.498;18.544;2022-12-18T09:53:22;102318.80;;;-1.70
71205;BMP180;58935;54.498;18.544;2022-12-18T09:55:48;102321.80;;;-1.60
71205;BMP180;58935;54.498;18.544;2022-12-18T09:58:19;102321.00;;;-1.52
71205;BMP180;58935;54.498;18.544;2022-12-18T10:00:51;102320.20;;;-1.42
71205;BMP180;58935;54.498;18.544;2022-12-18T10:03:17;102311.20;;;-1.40
71205;BMP180;58935;54.498;18.544;2022-12-18T10:08:43;102301.80;;;-1.30
71205;BMP180;58935;54.498;18.544;2022-12-18T10:13:51;102312.80;;;-1.20
71205;BMP180;58935;54.498;18.544;2022-12-18T10:16:25;102316.00;;;-1.10
71205;BMP180;58935;54.498;18.544;2022-12-18T10:18:58;102315.20;;;-1.10
71205;BMP180;58935;54.498;18.544;2022-12-18T10:21:33;102319.60;;;-1.04
71205;BMP180;58935;54.498;18.544;2022-12-18T10:24:15;102329.80;;;-0.92
71205;BMP180;58935;54.498;18.544;2022-12-18T10:26:42;102336.20;;;-0.84
71205;BMP180;58935;54.498;18.544;2022-12-18T10:29:11;102337.40;;;-0.80
71205;BMP180;58935;54.498;18.544;2022-12-18T10:31:37;102331.60;;;-0.70
71205;BMP180;58935;54.498;18.544;2022-12-18T10:34:02;102315.60;;;-0.70
71205;BMP180;58935;54.498;18.544;2022-12-18T10:36:28;102320.40;;;-0.70
71205;BMP180;58935;54.498;18.544;2022-12-18T10:38:58;102326.80;;;-0.60
71205;BMP180;58935;54.498;18.544;2022-12-18T10:41:38;102332.80;;;-0.60
71205;BMP180;58935;54.498;18.544;2022-12-18T10:44:21;102332.60;;;-0.56
71205;BMP180;58935;54.498;18.544;2022-12-18T10:46:53;102329.20;;;-0.50
71205;BMP180;58935;54.498;18.544;2022-12-18T10:49:26;102328.20;;;-0.50
71205;BMP180;58935;54.498;18.544;2022-12-18T10:52:05;102324.60;;;-0.44
71205;BMP180;58935;54.498;18.544;2022-12-18T10:54:31;102330.00;;;-0.40
71205;BMP180;58935;54.498;18.544;2022-12-18T10:57:13;102336.40;;;-0.40
71205;BMP180;58935;54.498;18.544;2022-12-18T11:02:25;102336.00;;;-0.40
71205;BMP180;58935;54.498;18.544;2022-12-18T11:04:54;102330.80;;;-0.36
71205;BMP180;58935;54.498;18.544;2022-12-18T11:07:24;102329.80;;;-0.30
71205;BMP180;58935;54.498;18.544;2022-12-18T11:10:00;102333.20;;;-0.20
71205;BMP180;58935;54.498;18.544;2022-12-18T11:12:30;102338.00;;;-0.14
71205;BMP180;58935;54.498;18.544;2022-12-18T11:14:55;102336.80;;;-0.10
71205;BMP180;58935;54.498;18.544;2022-12-18T11:17:28;102338.40;;;-0.10
71205;BMP180;58935;54.498;18.544;2022-12-18T11:19:59;102337.80;;;-0.10
71205;BMP180;58935;54.498;18.544;2022-12-18T11:22:31;102345.40;;;-0.10
71205;BMP180;58935;54.498;18.544;2022-12-18T11:25:03;102345.80;;;-0.10
71205;BMP180;58935;54.498;18.544;2022-12-18T11:27:32;102342.20;;;-0.10
71205;BMP180;58935;54.498;18.544;2022-12-18T11:32:34;102342.40;;;-0.10
71205;BMP180;58935;54.498;18.544;2022-12-18T11:35:09;102342.40;;;-0.10
71205;BMP180;58935;54.498;18.544;2022-12-18T11:37:40;102346.40;;;-0.10
71205;BMP180;58935;54.498;18.544;2022-12-18T11:40:12;102355.80;;;0.00
71205;BMP180;58935;54.498;18.544;2022-12-18T11:42:45;102360.80;;;0.00
71205;BMP180;58935;54.498;18.544;2022-12-18T11:45:24;102362.20;;;0.00
71205;BMP180;58935;54.498;18.544;2022-12-18T11:47:58;102367.20;;;0.00
71205;BMP180;58935;54.498;18.544;2022-12-18T11:50:42;102375.00;;;0.00
71205;BMP180;58935;54.498;18.544;2022-12-18T11:53:12;102368.80;;;0.00
71205;BMP180;58935;54.498;18.544;2022-12-18T11:55:42;102368.80;;;0.00
71205;BMP180;58935;54.498;18.544;2022-12-18T12:00:56;102376.20;;;0.00
71205;BMP180;58935;54.498;18.544;2022-12-18T12:03:39;102374.40;;;0.00
71205;BMP180;58935;54.498;18.544;2022-12-18T12:06:17;102373.40;;;-0.02
71205;BMP180;58935;54.498;18.544;2022-12-18T12:14:10;102374.80;;;-0.10
71205;BMP180;58935;54.498;18.544;2022-12-18T12:16:48;102367.80;;;-0.10
71205;BMP180;58935;54.498;18.544;2022-12-18T12:22:02;102350.80;;;-0.18
71205;BMP180;58935;54.498;18.544;2022-12-18T12:24:41;102352.40;;;-0.20
71205;BMP180;58935;54.498;18.544;2022-12-18T12:27:25;102353.60;;;-0.18
71205;BMP180;58935;54.498;18.544;2022-12-18T12:30:09;102344.40;;;-0.10
71205;BMP180;58935;54.498;18.544;2022-12-18T12:32:46;102342.40;;;-0.10
71205;BMP180;58935;54.498;18.544;2022-12-18T12:35:32;102341.40;;;-0.10
71205;BMP180;58935;54.498;18.544;2022-12-18T12:38:13;102345.60;;;-0.10
71205;BMP180;58935;54.498;18.544;2022-12-18T12:40:44;102340.40;;;-0.10
71205;BMP180;58935;54.498;18.544;2022-12-18T12:45:50;102346.60;;;-0.10
71205;BMP180;58935;54.498;18.544;2022-12-18T12:48:23;102334.20;;;-0.06
71205;BMP180;58935;54.498;18.544;2022-12-18T12:50:52;102342.60;;;-0.10
71205;BMP180;58935;54.498;18.544;2022-12-18T12:53:26;102341.00;;;-0.10
71205;BMP180;58935;54.498;18.544;2022-12-18T12:55:53;102340.60;;;-0.10
71205;BMP180;58935;54.498;18.544;2022-12-18T12:58:26;102333.40;;;-0.08
71205;BMP180;58935;54.498;18.544;2022-12-18T13:03:42;102331.80;;;-0.10
71205;BMP180;58935;54.498;18.544;2022-12-18T13:06:28;102317.40;;;-0.10
71205;BMP180;58935;54.498;18.544;2022-12-18T13:09:00;102328.00;;;-0.10
71205;BMP180;58935;54.498;18.544;2022-12-18T13:14:01;102325.40;;;-0.20
71205;BMP180;58935;54.498;18.544;2022-12-18T13:16:27;102331.20;;;-0.20
71205;BMP180;58935;54.498;18.544;2022-12-18T13:18:55;102325.60;;;-0.20
71205;BMP180;58935;54.498;18.544;2022-12-18T13:21:28;102334.00;;;-0.30
71205;BMP180;58935;54.498;18.544;2022-12-18T13:23:55;102331.80;;;-0.30
71205;BMP180;58935;54.498;18.544;2022-12-18T13:26:29;102341.40;;;-0.32
71205;BMP180;58935;54.498;18.544;2022-12-18T13:28:57;102341.40;;;-0.40
71205;BMP180;58935;54.498;18.544;2022-12-18T13:36:37;102343.00;;;-0.50
71205;BMP180;58935;54.498;18.544;2022-12-18T13:39:09;102348.40;;;-0.50
71205;BMP180;58935;54.498;18.544;2022-12-18T13:41:35;102349.60;;;-0.60
71205;BMP180;58935;54.498;18.544;2022-12-18T13:49:21;102358.80;;;-0.70
71205;BMP180;58935;54.498;18.544;2022-12-18T13:51:50;102353.00;;;-0.80
71205;BMP180;58935;54.498;18.544;2022-12-18T13:54:25;102351.00;;;-0.84
71205;BMP180;58935;54.498;18.544;2022-12-18T13:56:53;102348.00;;;-0.90
71205;BMP180;58935;54.498;18.544;2022-12-18T13:59:24;102353.20;;;-0.98
71205;BMP180;58935;54.498;18.544;2022-12-18T14:01:53;102345.40;;;-1.00
71205;BMP180;58935;54.498;18.544;2022-12-18T14:04:24;102329.20;;;-1.10
71205;BMP180;58935;54.498;18.544;2022-12-18T14:06:55;102347.60;;;-1.12
71205;BMP180;58935;54.498;18.544;2022-12-18T14:09:26;102342.20;;;-1.20
71205;BMP180;58935;54.498;18.544;2022-12-18T14:11:53;102330.20;;;-1.28
71205;BMP180;58935;54.498;18.544;2022-12-18T14:14:41;102329.00;;;-1.34
71205;BMP180;58935;54.498;18.544;2022-12-18T14:17:10;102320.80;;;-1.40
71205;BMP180;58935;54.498;18.544;2022-12-18T14:19:36;102316.40;;;-1.50
71205;BMP180;58935;54.498;18.544;2022-12-18T14:22:02;102311.40;;;-1.60
71205;BMP180;58935;54.498;18.544;2022-12-18T14:24:30;102320.40;;;-1.60
71205;BMP180;58935;54.498;18.544;2022-12-18T14:27:12;102315.20;;;-1.70
71205;BMP180;58935;54.498;18.544;2022-12-18T14:29:42;102326.60;;;-1.78
71205;BMP180;58935;54.498;18.544;2022-12-18T14:32:18;102308.60;;;-1.80
71205;BMP180;58935;54.498;18.544;2022-12-18T14:34:49;102312.20;;;-1.90
71205;BMP180;58935;54.498;18.544;2022-12-18T14:37:18;102318.80;;;-2.00
71205;BMP180;58935;54.498;18.544;2022-12-18T14:42:16;102323.80;;;-2.10
71205;BMP180;58935;54.498;18.544;2022-12-18T14:44:42;102329.60;;;-2.10
71205;BMP180;58935;54.498;18.544;2022-12-18T14:47:15;102323.00;;;-2.10
71205;BMP180;58935;54.498;18.544;2022-12-18T14:49:41;102316.60;;;-2.18